createdAt,value
2019-03-20T00:02:27.572Z,95.60
2019-03-20T00:04:57.985Z,95.40
2019-03-20T00:07:28.470Z,95.60
2019-03-20T00:09:58.896Z,95.40
2019-03-20T00:12:29.327Z,95.60
2019-03-20T00:15:01.035Z,95.50
2019-03-20T00:17:31.479Z,95.40
2019-03-20T00:20:02.061Z,95.50
2019-03-20T00:22:32.549Z,95.50
2019-03-20T00:25:03.312Z,95.70
2019-03-20T00:27:33.793Z,95.80
2019-03-20T00:30:04.498Z,95.90
2019-03-20T00:32:34.962Z,96.00
2019-03-20T00:35:05.651Z,95.90
2019-03-20T00:37:36.059Z,96.10
2019-03-20T00:40:08.161Z,96.20
2019-03-20T00:42:38.598Z,96.20
2019-03-20T00:45:11.220Z,96.20
2019-03-20T00:47:41.739Z,96.00
2019-03-20T00:50:16.097Z,95.90
2019-03-20T00:52:46.706Z,95.90
2019-03-20T00:55:18.217Z,95.90
2019-03-20T00:57:49.275Z,96.30
2019-03-20T01:00:20.095Z,96.20
2019-03-20T01:02:50.496Z,96.30
2019-03-20T01:05:21.679Z,96.00
2019-03-20T01:07:52.314Z,96.50
2019-03-20T01:10:23.073Z,96.40
2019-03-20T01:12:53.628Z,96.40
2019-03-20T01:15:24.261Z,96.30
2019-03-20T01:17:54.709Z,96.30
2019-03-20T01:20:25.252Z,96.40
2019-03-20T01:22:56.641Z,97.00
2019-03-20T01:25:27.077Z,97.00
2019-03-20T01:27:57.551Z,96.90
2019-03-20T01:30:31.618Z,96.80
2019-03-20T01:33:07.647Z,96.90
2019-03-20T01:35:38.710Z,96.90
2019-03-20T01:38:09.183Z,96.80
2019-03-20T01:40:40.523Z,96.80
2019-03-20T01:43:11.318Z,96.80
2019-03-20T01:45:41.715Z,96.80
2019-03-20T01:48:12.148Z,96.90
2019-03-20T01:50:42.602Z,96.80
2019-03-20T01:53:13.011Z,96.60
2019-03-20T01:55:43.656Z,96.60
2019-03-20T01:58:15.070Z,96.70
2019-03-20T02:00:45.934Z,96.80
2019-03-20T02:03:16.645Z,96.80
2019-03-20T02:05:47.216Z,97.00
2019-03-20T02:08:17.877Z,97.30
2019-03-20T02:10:48.286Z,97.20
2019-03-20T02:13:18.708Z,97.20
2019-03-20T02:15:50.186Z,97.30
2019-03-20T02:18:20.598Z,97.20
2019-03-20T02:20:51.200Z,97.20
2019-03-20T02:23:21.650Z,97.30
2019-03-20T02:25:52.276Z,97.40
2019-03-20T02:28:22.712Z,97.40
2019-03-20T02:30:53.129Z,97.70
2019-03-20T02:33:23.980Z,97.80
2019-03-20T02:35:54.399Z,97.90
2019-03-20T02:38:25.020Z,98.00
2019-03-20T02:40:55.665Z,98.10
2019-03-20T02:43:26.120Z,97.90
2019-03-20T02:45:56.509Z,97.90
2019-03-20T02:48:26.961Z,97.90
2019-03-20T02:50:57.767Z,97.90
2019-03-20T02:53:28.462Z,97.90
2019-03-20T02:55:58.877Z,98.00
2019-03-20T02:58:29.332Z,98.20
2019-03-20T03:00:59.773Z,98.20
2019-03-20T03:03:30.203Z,98.10
2019-03-20T03:06:06.747Z,98.20
2019-03-20T03:08:32.740Z,98.20
2019-03-20T03:11:03.152Z,98.40
2019-03-20T03:13:34.171Z,98.60
2019-03-20T03:16:04.606Z,98.70
2019-03-20T03:18:35.197Z,98.60
2019-03-20T03:21:05.612Z,98.50
2019-03-20T03:23:36.141Z,98.50
2019-03-20T03:26:06.551Z,98.50
2019-03-20T03:28:37.173Z,98.40
2019-03-20T03:31:07.894Z,98.20
2019-03-20T03:33:38.327Z,98.20
2019-03-20T03:36:20.514Z,98.30
2019-03-20T03:38:41.186Z,98.20
2019-03-20T03:41:11.612Z,98.20
2019-03-20T03:43:42.058Z,98.10
2019-03-20T03:46:12.474Z,98.10
2019-03-20T03:48:42.961Z,98.20
2019-03-20T03:51:13.425Z,98.30
2019-03-20T03:53:44.061Z,98.40
2019-03-20T03:56:14.496Z,98.30
2019-03-20T03:58:44.948Z,98.20
2019-03-20T04:01:15.556Z,98.30
2019-03-20T04:03:46.063Z,98.30
2019-03-20T04:06:17.366Z,98.30
2019-03-20T04:08:47.816Z,98.30
2019-03-20T04:11:18.286Z,98.20
2019-03-20T04:13:48.701Z,98.30
2019-03-20T04:16:19.240Z,98.30
2019-03-20T04:18:49.675Z,98.30
2019-03-20T04:21:20.081Z,98.20
2019-03-20T04:23:50.793Z,98.30
2019-03-20T04:26:21.221Z,98.30
2019-03-20T04:28:51.637Z,98.40
2019-03-20T04:31:22.060Z,98.40
2019-03-20T04:33:52.491Z,98.40
2019-03-20T04:36:22.906Z,98.40
2019-03-20T04:38:53.321Z,98.30
2019-03-20T04:41:23.794Z,98.30
2019-03-20T04:43:54.255Z,98.40
2019-03-20T04:46:24.691Z,98.80
2019-03-20T04:48:55.177Z,98.60
2019-03-20T04:51:25.798Z,98.70
2019-03-20T04:53:56.239Z,98.80
2019-03-20T04:56:26.817Z,98.70
2019-03-20T04:58:57.319Z,98.70
2019-03-20T05:01:27.898Z,98.60
2019-03-20T05:03:58.298Z,98.40
2019-03-20T05:06:28.731Z,98.30
2019-03-20T05:08:59.149Z,98.20
2019-03-20T05:11:29.605Z,98.30
2019-03-20T05:14:00.046Z,98.20
2019-03-20T05:16:30.594Z,98.40
2019-03-20T05:19:01.079Z,98.20
2019-03-20T05:21:31.492Z,98.10
2019-03-20T05:24:01.970Z,97.90
2019-03-20T05:26:33.297Z,98.10
2019-03-20T05:29:03.751Z,98.00
2019-03-20T05:31:34.171Z,98.10
2019-03-20T05:34:04.584Z,98.30
2019-03-20T05:36:35.025Z,98.40
2019-03-20T05:39:07.912Z,98.20
2019-03-20T05:41:38.398Z,98.40
2019-03-20T05:44:08.838Z,98.30
2019-03-20T05:46:39.334Z,98.20
2019-03-20T05:49:11.811Z,98.10
2019-03-20T05:51:59.083Z,97.90
2019-03-20T05:54:29.908Z,98.10
2019-03-20T05:57:00.361Z,97.80
2019-03-20T05:59:31.025Z,98.10
2019-03-20T06:02:01.487Z,98.20
2019-03-20T06:04:32.435Z,98.20
2019-03-20T06:07:03.064Z,98.00
2019-03-20T06:09:33.550Z,97.90
2019-03-20T06:12:04.029Z,98.10
2019-03-20T06:14:34.514Z,98.00
2019-03-20T06:17:04.976Z,98.00
2019-03-20T06:19:35.404Z,97.60
2019-03-20T06:22:06.186Z,97.50
2019-03-20T06:24:36.650Z,97.60
2019-03-20T06:27:07.094Z,97.60
2019-03-20T06:29:37.705Z,97.50
2019-03-20T06:32:08.152Z,97.50
2019-03-20T06:34:38.618Z,97.40
2019-03-20T06:37:09.035Z,97.40
2019-03-20T06:39:39.492Z,97.20
2019-03-20T06:42:09.931Z,97.00
2019-03-20T06:44:40.380Z,97.00
2019-03-20T06:47:10.798Z,97.10
2019-03-20T06:49:41.285Z,96.90
2019-03-20T06:52:11.745Z,96.50
2019-03-20T06:54:42.374Z,96.10
2019-03-20T06:57:12.785Z,95.90
2019-03-20T07:00:39.353Z,95.20
2019-03-20T07:03:15.228Z,93.40
2019-03-20T07:06:28.992Z,80.40
2019-03-20T07:09:31.001Z,66.60
2019-03-20T07:12:01.580Z,58.20
2019-03-20T07:14:32.193Z,52.20
2019-03-20T07:17:02.644Z,48.80
2019-03-20T07:19:33.117Z,46.20
2019-03-20T07:22:03.525Z,44.40
2019-03-20T07:24:33.992Z,42.90
2019-03-20T07:27:04.437Z,40.30
2019-03-20T07:29:34.907Z,38.00
2019-03-20T07:32:05.442Z,36.70
2019-03-20T07:34:35.919Z,35.60
2019-03-20T07:37:06.608Z,33.90
2019-03-20T07:39:37.231Z,32.60
2019-03-20T07:42:07.688Z,33.20
2019-03-20T07:44:38.157Z,33.00
2019-03-20T07:47:08.619Z,34.00
2019-03-20T07:49:39.106Z,32.50
2019-03-20T07:52:09.600Z,31.90
2019-03-20T07:54:40.045Z,31.80
2019-03-20T07:57:10.461Z,31.90
2019-03-20T07:59:41.093Z,30.90
2019-03-20T08:02:11.589Z,29.90
2019-03-20T08:04:42.047Z,28.90
2019-03-20T08:07:12.591Z,28.40
2019-03-20T08:09:43.040Z,27.90
2019-03-20T08:12:13.482Z,26.90
2019-03-20T08:14:43.913Z,27.70
2019-03-20T08:17:14.403Z,26.00
2019-03-20T08:19:44.827Z,26.50
2019-03-20T08:22:15.262Z,25.80
2019-03-20T08:24:45.728Z,25.70
2019-03-20T08:27:16.183Z,25.80
2019-03-20T08:29:46.938Z,25.30
2019-03-20T08:32:18.324Z,26.10
2019-03-20T08:34:48.908Z,27.30
2019-03-20T08:37:19.492Z,26.00
2019-03-20T08:39:49.998Z,25.10
2019-03-20T08:42:21.349Z,26.10
2019-03-20T08:44:51.866Z,25.70
2019-03-20T08:47:22.537Z,25.10
2019-03-20T08:49:53.061Z,25.90
2019-03-20T08:52:23.537Z,26.60
2019-03-20T08:54:53.991Z,27.90
2019-03-20T08:57:24.434Z,28.00
2019-03-20T08:59:54.879Z,27.90
2019-03-20T09:02:25.338Z,26.30
2019-03-20T09:04:55.785Z,25.80
2019-03-20T09:07:26.236Z,25.60
2019-03-20T09:09:57.045Z,25.90
2019-03-20T09:12:27.472Z,25.40
2019-03-20T09:14:57.912Z,24.30
2019-03-20T09:17:28.424Z,24.20
2019-03-20T09:19:58.889Z,24.20
2019-03-20T09:22:29.346Z,22.70
2019-03-20T09:24:59.776Z,22.60
2019-03-20T09:27:30.252Z,22.60
2019-03-20T09:30:00.695Z,22.80
2019-03-20T09:32:31.133Z,22.70
2019-03-20T09:35:01.658Z,23.20
2019-03-20T09:37:32.312Z,24.10
2019-03-20T09:40:02.767Z,23.70
2019-03-20T09:42:33.341Z,23.40
2019-03-20T09:45:04.023Z,23.70
2019-03-20T09:47:34.452Z,23.70
2019-03-20T09:50:05.825Z,23.50
2019-03-20T09:52:36.278Z,23.80
2019-03-20T09:55:07.588Z,23.70
2019-03-20T09:57:38.074Z,23.70
2019-03-20T10:00:16.831Z,23.60
2019-03-20T10:02:47.689Z,23.90
2019-03-20T10:05:18.137Z,23.60
2019-03-20T10:07:48.699Z,23.40
2019-03-20T10:10:21.069Z,23.40
2019-03-20T10:12:51.873Z,23.10
2019-03-20T10:15:24.338Z,23.80
2019-03-20T10:17:54.792Z,23.60
2019-03-20T10:20:25.853Z,23.30
2019-03-20T10:22:56.370Z,23.10
2019-03-20T10:25:26.834Z,23.80
2019-03-20T10:27:57.263Z,24.20
2019-03-20T10:30:28.101Z,23.80
2019-03-20T10:32:58.526Z,23.30
2019-03-20T10:35:28.977Z,23.60
2019-03-20T10:37:59.445Z,22.80
2019-03-20T10:40:29.938Z,22.60
2019-03-20T10:43:00.408Z,22.50
2019-03-20T10:45:30.841Z,22.90
2019-03-20T10:48:01.276Z,22.70
2019-03-20T10:50:32.006Z,23.00
2019-03-20T10:53:02.486Z,22.70
2019-03-20T10:55:32.960Z,23.50
2019-03-20T10:58:03.404Z,22.40
2019-03-20T11:00:33.845Z,22.90
2019-03-20T11:03:04.292Z,22.70
2019-03-20T11:05:34.951Z,22.00
2019-03-20T11:08:05.681Z,22.40
2019-03-20T11:10:36.174Z,22.70
2019-03-20T11:13:07.051Z,22.10
2019-03-20T11:15:39.530Z,22.60
2019-03-20T11:18:10.008Z,22.50
2019-03-20T11:20:40.483Z,22.70
2019-03-20T11:23:10.939Z,21.60
2019-03-20T11:25:41.398Z,22.10
2019-03-20T11:28:11.948Z,21.50
2019-03-20T11:30:42.400Z,21.20
2019-03-20T11:33:12.957Z,21.10
2019-03-20T11:35:43.392Z,21.70
2019-03-20T11:38:13.847Z,21.80
2019-03-20T11:40:44.261Z,22.20
2019-03-20T11:43:14.760Z,22.30
2019-03-20T11:45:46.080Z,23.10
2019-03-20T11:48:16.708Z,24.20
2019-03-20T11:50:47.203Z,25.70
2019-03-20T11:53:19.722Z,25.40
2019-03-20T11:55:50.374Z,25.50
2019-03-20T11:58:20.889Z,26.50
2019-03-20T12:00:51.342Z,27.60
2019-03-20T12:03:21.901Z,28.60
2019-03-20T12:05:52.365Z,29.30
2019-03-20T12:08:22.833Z,29.80
2019-03-20T12:10:53.410Z,30.80
2019-03-20T12:13:23.945Z,31.60
2019-03-20T12:15:54.544Z,31.90
2019-03-20T12:18:24.993Z,31.60
2019-03-20T12:20:55.453Z,32.60
2019-03-20T12:23:25.883Z,33.10
2019-03-20T12:25:56.354Z,34.30
2019-03-20T12:28:26.818Z,34.20
2019-03-20T12:30:57.262Z,34.90
2019-03-20T12:33:27.719Z,33.10
2019-03-20T12:35:58.201Z,32.80
2019-03-20T12:38:28.635Z,33.20
2019-03-20T12:40:59.138Z,34.00
2019-03-20T12:43:29.615Z,33.70
2019-03-20T12:46:00.059Z,33.20
2019-03-20T12:48:30.530Z,32.40
2019-03-20T12:51:01.021Z,32.70
2019-03-20T12:53:32.719Z,33.80
2019-03-20T12:56:03.167Z,33.40
2019-03-20T12:58:33.650Z,33.10
2019-03-20T13:01:04.163Z,34.20
2019-03-20T13:03:34.696Z,33.60
2019-03-20T13:06:05.141Z,34.00
2019-03-20T13:08:35.758Z,33.90
2019-03-20T13:11:06.241Z,33.90
2019-03-20T13:13:36.595Z,35.20
2019-03-20T13:16:07.155Z,34.20
2019-03-20T13:18:37.665Z,35.70
2019-03-20T13:21:08.152Z,34.30
2019-03-20T13:23:38.701Z,34.40
2019-03-20T13:26:09.137Z,35.00
2019-03-20T13:28:39.713Z,34.30
2019-03-20T13:31:17.476Z,34.50
2019-03-20T13:33:49.171Z,34.50
2019-03-20T13:36:20.050Z,34.30
2019-03-20T13:38:50.505Z,34.40
2019-03-20T13:41:20.974Z,34.80
2019-03-20T13:43:51.438Z,35.10
2019-03-20T13:46:21.873Z,34.50
2019-03-20T13:48:52.432Z,35.10
2019-03-20T13:51:22.887Z,35.80
2019-03-20T13:53:53.321Z,35.50
2019-03-20T13:56:23.822Z,35.60
2019-03-20T13:58:54.263Z,35.50
2019-03-20T14:01:25.631Z,35.40
2019-03-20T14:03:56.130Z,35.40
2019-03-20T14:06:26.984Z,35.50
2019-03-20T14:08:57.623Z,35.20
2019-03-20T14:11:28.151Z,35.40
2019-03-20T14:13:58.657Z,35.80
2019-03-20T14:16:29.264Z,36.00
2019-03-20T14:18:59.917Z,35.80
2019-03-20T14:21:30.402Z,35.60
2019-03-20T14:24:00.847Z,35.40
2019-03-20T14:26:31.369Z,35.00
2019-03-20T14:29:02.039Z,35.40
2019-03-20T14:31:32.572Z,35.70
2019-03-20T14:34:03.031Z,36.20
2019-03-20T14:36:33.561Z,35.80
2019-03-20T14:39:05.520Z,36.10
2019-03-20T14:41:35.970Z,35.80
2019-03-20T14:44:06.520Z,35.50
2019-03-20T14:46:36.999Z,36.20
2019-03-20T14:49:07.700Z,36.20
2019-03-20T14:51:38.431Z,35.00
2019-03-20T14:54:08.980Z,35.70
2019-03-20T14:56:39.628Z,35.40
2019-03-20T14:59:10.117Z,36.00
2019-03-20T15:01:40.626Z,36.80
2019-03-20T15:04:13.147Z,36.50
2019-03-20T15:06:43.616Z,36.10
2019-03-20T15:09:14.059Z,36.90
2019-03-20T15:11:44.814Z,36.90
2019-03-20T15:14:15.268Z,36.40
2019-03-20T15:16:45.880Z,36.90
2019-03-20T15:19:16.379Z,36.70
2019-03-20T15:21:46.940Z,36.60
2019-03-20T15:24:17.362Z,36.90
2019-03-20T15:26:47.866Z,36.80
2019-03-20T15:29:18.470Z,36.90
2019-03-20T15:31:49.192Z,36.50
2019-03-20T15:34:19.681Z,36.70
2019-03-20T15:36:50.499Z,37.50
2019-03-20T15:39:20.942Z,37.50
2019-03-20T15:41:51.599Z,37.40
2019-03-20T15:44:22.051Z,37.20
2019-03-20T15:46:52.799Z,36.70
2019-03-20T15:49:23.316Z,37.80
2019-03-20T15:51:53.865Z,40.30
2019-03-20T15:54:24.605Z,42.00
2019-03-20T15:56:56.160Z,41.90
2019-03-20T15:59:26.795Z,41.90
2019-03-20T16:01:57.402Z,37.50
2019-03-20T16:04:27.937Z,38.40
2019-03-20T16:06:58.441Z,40.50
2019-03-20T16:09:29.245Z,43.10
2019-03-20T16:11:59.697Z,43.60
2019-03-20T16:14:30.119Z,43.40
2019-03-20T16:17:00.767Z,44.30
2019-03-20T16:19:31.249Z,43.60
2019-03-20T16:22:01.776Z,45.00
2019-03-20T16:24:32.278Z,45.10
2019-03-20T16:27:02.806Z,45.30
2019-03-20T16:29:33.471Z,45.00
2019-03-20T16:32:03.974Z,45.50
2019-03-20T16:34:34.436Z,45.60
2019-03-20T16:37:05.004Z,45.70
2019-03-20T16:39:35.556Z,46.30
2019-03-20T16:42:06.084Z,47.00
2019-03-20T16:44:36.582Z,47.40
2019-03-20T16:47:07.164Z,47.60
2019-03-20T16:49:37.740Z,47.20
2019-03-20T16:52:08.264Z,48.00
2019-03-20T16:54:38.978Z,48.10
2019-03-20T16:57:09.413Z,49.20
2019-03-20T16:59:40.028Z,49.40
2019-03-20T17:02:10.523Z,50.30
2019-03-20T17:04:41.036Z,50.30
2019-03-20T17:07:11.615Z,50.70
2019-03-20T17:09:42.076Z,51.70
2019-03-20T17:12:12.579Z,52.20
2019-03-20T17:14:43.095Z,51.60
2019-03-20T17:17:13.546Z,51.70
2019-03-20T17:19:44.541Z,51.60
2019-03-20T17:22:15.017Z,52.80
2019-03-20T17:24:47.445Z,53.30
2019-03-20T17:27:17.978Z,53.70
2019-03-20T17:29:48.463Z,54.10
2019-03-20T17:32:19.313Z,54.70
2019-03-20T17:34:49.742Z,55.10
2019-03-20T17:37:20.271Z,55.00
2019-03-20T17:39:50.787Z,55.80
2019-03-20T17:42:21.471Z,56.00
2019-03-20T17:44:52.445Z,55.80
2019-03-20T17:47:22.954Z,55.90
2019-03-20T17:49:53.450Z,57.00
2019-03-20T17:52:23.989Z,57.30
2019-03-20T17:54:54.547Z,57.40
2019-03-20T17:57:25.040Z,58.80
2019-03-20T17:59:55.628Z,58.20
2019-03-20T18:02:26.131Z,59.10
2019-03-20T18:04:56.722Z,59.80
2019-03-20T18:07:27.165Z,60.40
2019-03-20T18:10:00.527Z,60.50
2019-03-20T18:12:31.433Z,59.70
2019-03-20T18:15:02.194Z,59.30
2019-03-20T18:17:32.723Z,59.70
2019-03-20T18:20:03.536Z,59.80
2019-03-20T18:22:34.032Z,59.60
2019-03-20T18:25:04.949Z,60.00
2019-03-20T18:27:35.431Z,60.20
2019-03-20T18:30:10.976Z,60.20
2019-03-20T18:32:41.599Z,61.20
2019-03-20T18:35:12.029Z,61.70
2019-03-20T18:37:42.519Z,61.50
2019-03-20T18:40:15.121Z,62.10
2019-03-20T18:42:45.895Z,62.20
2019-03-20T18:45:18.236Z,62.80
2019-03-20T18:47:48.707Z,62.70
2019-03-20T18:50:20.234Z,62.80
2019-03-20T18:52:51.044Z,63.40
2019-03-20T18:55:21.716Z,63.50
2019-03-20T18:57:52.295Z,64.20
2019-03-20T19:00:24.983Z,65.40
2019-03-20T19:02:56.619Z,65.60
2019-03-20T19:05:44.422Z,66.40
2019-03-20T19:08:14.957Z,67.40
2019-03-20T19:10:45.639Z,67.70
2019-03-20T19:13:16.235Z,67.90
2019-03-20T19:15:48.595Z,68.20
2019-03-20T19:18:19.877Z,68.30
2019-03-20T19:20:50.920Z,68.70
2019-03-20T19:23:21.510Z,68.70
2019-03-20T19:25:52.095Z,68.90
2019-03-20T19:28:22.892Z,68.90
2019-03-20T19:30:53.676Z,69.10
2019-03-20T19:33:24.228Z,69.40
2019-03-20T19:35:58.048Z,69.90
2019-03-20T19:38:34.759Z,70.40
2019-03-20T19:41:01.164Z,71.20
2019-03-20T19:43:31.680Z,71.50
2019-03-20T19:46:02.409Z,71.80
2019-03-20T19:48:32.915Z,72.60
2019-03-20T19:51:03.708Z,72.30
2019-03-20T19:53:34.152Z,72.70
2019-03-20T19:56:04.764Z,73.30
2019-03-20T19:58:35.461Z,73.20
2019-03-20T20:01:05.996Z,73.70
2019-03-20T20:03:36.920Z,73.90
2019-03-20T20:06:07.525Z,74.20
2019-03-20T20:08:39.535Z,74.00
2019-03-20T20:11:10.974Z,74.60
2019-03-20T20:13:41.514Z,74.50
2019-03-20T20:16:12.222Z,74.60
2019-03-20T20:18:42.711Z,75.40
2019-03-20T20:21:13.766Z,74.90
2019-03-20T20:23:44.210Z,75.20
2019-03-20T20:26:14.609Z,75.60
2019-03-20T20:28:45.128Z,76.10
2019-03-20T20:31:15.801Z,76.60
2019-03-20T20:33:46.538Z,76.70
2019-03-20T20:36:17.002Z,77.00
2019-03-20T20:38:47.496Z,77.70
2019-03-20T20:41:18.279Z,78.20
2019-03-20T20:43:48.808Z,78.20
2019-03-20T20:46:19.252Z,78.00
2019-03-20T20:48:49.751Z,78.10
2019-03-20T20:51:20.187Z,78.60
2019-03-20T20:53:50.802Z,78.90
2019-03-20T20:56:22.694Z,79.20
2019-03-20T20:58:53.380Z,79.30
2019-03-20T21:01:24.188Z,79.90
2019-03-20T21:03:54.659Z,79.90
2019-03-20T21:06:25.218Z,79.50
2019-03-20T21:08:55.927Z,80.30
2019-03-20T21:11:26.517Z,80.90
2019-03-20T21:13:57.926Z,80.50
2019-03-20T21:16:29.196Z,80.70
2019-03-20T21:19:39.062Z,80.80
2019-03-20T21:23:16.049Z,80.70
2019-03-20T21:25:47.323Z,80.40
2019-03-20T21:29:18.259Z,80.30
2019-03-20T21:32:00.299Z,80.60
2019-03-20T21:36:00.867Z,81.30
2019-03-20T21:38:32.319Z,81.90
2019-03-20T21:42:09.526Z,81.70
2019-03-20T21:45:23.960Z,82.20
2019-03-20T21:47:55.194Z,82.50
2019-03-20T21:51:14.985Z,83.30
2019-03-20T21:54:48.477Z,83.40
2019-03-20T21:57:52.058Z,83.20
2019-03-20T22:01:24.548Z,83.90
2019-03-20T22:03:55.927Z,84.60
2019-03-20T22:07:18.199Z,85.10
2019-03-20T22:10:49.950Z,85.50
2019-03-20T22:13:45.356Z,85.10
2019-03-20T22:17:49.955Z,86.20
2019-03-20T22:21:02.278Z,86.30
2019-03-20T22:24:30.361Z,86.40
2019-03-20T22:27:46.112Z,86.60
2019-03-20T22:30:17.443Z,86.70
2019-03-20T22:34:01.269Z,86.90
2019-03-20T22:36:38.536Z,87.40
2019-03-20T22:40:03.894Z,87.60
2019-03-20T22:43:15.331Z,87.20
2019-03-20T22:46:33.281Z,87.40
2019-03-20T22:49:51.312Z,87.80
2019-03-20T22:53:14.869Z,88.00
2019-03-20T22:56:26.263Z,88.20
2019-03-20T22:58:57.584Z,88.30
2019-03-20T23:02:04.879Z,88.50
2019-03-20T23:04:40.903Z,88.50
2019-03-20T23:07:12.268Z,87.70
2019-03-20T23:09:43.630Z,87.70
2019-03-20T23:12:18.106Z,87.70
2019-03-20T23:14:49.833Z,87.20
2019-03-20T23:17:21.467Z,87.30
2019-03-20T23:19:54.823Z,87.90
2019-03-20T23:22:26.055Z,88.10
2019-03-20T23:24:57.294Z,88.70
2019-03-20T23:27:31.711Z,88.80
2019-03-20T23:30:04.703Z,89.00
2019-03-20T23:32:36.058Z,89.40
2019-03-20T23:35:07.949Z,89.80
2019-03-20T23:37:39.235Z,89.70
2019-03-20T23:40:13.146Z,89.50
2019-03-20T23:42:45.740Z,89.20
2019-03-20T23:45:18.100Z,89.70
2019-03-20T23:48:01.049Z,89.80
2019-03-20T23:50:32.297Z,89.90
2019-03-20T23:53:03.553Z,90.00
2019-03-20T23:55:35.171Z,89.70
2019-03-20T23:58:06.422Z,89.50
